Time;durP1;ratioP1;P1;durP2;ratioP2;P2;SDS_P1;SDS_P2;PMS_P1;PMS_P2;Temp;Humidity;BMP_temperature;BMP_pressure;BME280_temperature;BME280_humidity;BME280_pressure;Samples;Min_cycle;Max_cycle;Signal;HPM_P1;HPM_P2
2022/01/24 00:01:43;;;;;;;11.45;6.00;;;0.40;99.90;;;;;;5120922;28;20035;-81
2022/01/24 00:04:09;;;;;;;14.07;7.20;;;0.40;99.90;;;;;;5120886;28;20065;-81
2022/01/24 00:06:35;;;;;;;12.25;7.10;;;0.40;99.90;;;;;;5102511;28;20038;-81
2022/01/24 00:09:01;;;;;;;13.15;7.00;;;0.40;99.90;;;;;;5121292;28;20032;-81
2022/01/24 00:11:40;;;;;;;16.60;7.47;;;0.40;99.90;;;;;;5102726;28;20036;-81
2022/01/24 00:16:58;;;;;;;13.32;6.00;;;0.30;99.90;;;;;;5121063;28;20520;-81
2022/01/24 00:27:32;;;;;;;14.23;6.53;;;0.10;99.90;;;;;;5115217;28;20123;-81
2022/01/24 00:29:57;;;;;;;12.73;6.35;;;0.10;99.90;;;;;;5120651;28;20055;-81
2022/01/24 00:32:23;;;;;;;14.18;7.13;;;0.10;99.90;;;;;;5120127;28;20042;-81
2022/01/24 00:34:49;;;;;;;12.73;6.15;;;0.10;99.90;;;;;;5120376;28;20087;-81
2022/01/24 00:37:14;;;;;;;12.38;5.88;;;0.10;99.90;;;;;;5120195;28;20056;-81
2022/01/24 00:39:40;;;;;;;16.60;7.45;;;0.10;99.90;;;;;;5120933;28;20038;-81
2022/01/24 00:42:20;;;;;;;12.50;6.60;;;0.10;99.90;;;;;;5120520;28;20498;-81
2022/01/24 00:47:29;;;;;;;14.80;7.30;;;0.10;99.90;;;;;;5119581;28;20031;-81
2022/01/24 00:55:16;;;;;;;14.32;6.65;;;0.00;99.90;;;;;;5120449;28;20168;-81
2022/01/24 00:57:42;;;;;;;14.00;6.95;;;0.00;99.90;;;;;;5101735;28;20059;-81
2022/01/24 01:00:09;;;;;;;13.25;6.63;;;0.00;99.90;;;;;;5119728;28;20495;-81
2022/01/24 01:02:35;;;;;;;17.48;6.53;;;-0.10;99.90;;;;;;5112644;28;20072;-81
2022/01/24 01:05:24;;;;;;;14.98;7.00;;;-0.10;99.90;;;;;;5087086;28;20426;-81
2022/01/24 01:18:43;;;;;;;15.63;7.20;;;-0.10;99.90;;;;;;5098784;28;20043;-81
2022/01/24 01:21:14;;;;;;;13.63;7.00;;;0.00;99.90;;;;;;5097805;28;20029;-81
2022/01/24 01:23:46;;;;;;;14.57;6.97;;;-0.10;99.90;;;;;;5098796;28;20472;-81
2022/01/24 01:29:14;;;;;;;14.20;5.75;;;0.00;99.90;;;;;;5093159;28;20115;-81
2022/01/24 01:55:38;;;;;;;15.95;7.05;;;0.00;99.90;;;;;;5118858;28;20080;-81
2022/01/24 01:58:09;;;;;;;14.57;7.22;;;0.00;99.90;;;;;;5100068;28;20042;-81
2022/01/24 02:00:36;;;;;;;;;;;0.00;99.90;;;;;;5119049;28;20087;-81
2022/01/24 02:03:02;;;;;;;13.50;6.20;;;0.00;99.90;;;;;;5118675;28;20260;-81
2022/01/24 02:05:28;;;;;;;12.80;6.18;;;0.00;99.90;;;;;;5118571;28;20020;-81
2022/01/24 02:07:54;;;;;;;14.35;6.15;;;-0.10;99.90;;;;;;5118311;28;20510;-81
2022/01/24 02:10:21;;;;;;;13.23;6.10;;;-0.10;99.90;;;;;;5099601;28;20122;-81
2022/01/24 02:12:49;;;;;;;12.82;6.43;;;-0.10;99.90;;;;;;5118054;28;20149;-81
2022/01/24 02:15:22;;;;;;;16.13;7.03;;;-0.10;99.90;;;;;;5118496;28;20019;-81
2022/01/24 02:18:35;;;;;;;13.93;6.53;;;-0.10;99.90;;;;;;5117822;28;20058;-81
2022/01/24 02:21:08;;;;;;;13.05;6.57;;;0.00;99.90;;;;;;5109085;28;20376;-81
2022/01/24 02:26:01;;;;;;;15.10;6.97;;;0.00;99.90;;;;;;5118176;28;20119;-81
2022/01/24 02:28:44;;;;;;;13.82;6.57;;;0.00;99.90;;;;;;5118117;28;20023;-81
2022/01/24 02:33:46;;;;;;;12.75;6.63;;;-0.10;99.90;;;;;;5117531;28;20031;-81
2022/01/24 02:36:17;;;;;;;14.88;6.63;;;-0.10;99.90;;;;;;5099362;28;20184;-81
2022/01/24 02:39:05;;;;;;;12.10;5.72;;;-0.20;99.90;;;;;;5118129;28;20065;-81
2022/01/24 02:49:29;;;;;;;10.90;5.00;;;-0.40;99.90;;;;;;5117217;28;20024;-81
2022/01/24 02:52:06;;;;;;;10.35;4.90;;;-0.40;99.90;;;;;;5116868;28;20024;-81
2022/01/24 02:54:34;;;;;;;9.27;4.43;;;-0.40;99.90;;;;;;5117147;28;20105;-81
2022/01/24 02:57:01;;;;;;;8.25;4.30;;;-0.40;99.90;;;;;;5117468;28;20468;-81
2022/01/24 02:59:27;;;;;;;9.45;4.40;;;-0.40;99.90;;;;;;5116985;28;20115;-81
2022/01/24 03:01:53;;;;;;;9.57;4.28;;;-0.40;99.90;;;;;;5116657;28;20031;-81
2022/01/24 03:04:19;;;;;;;9.80;4.70;;;-0.40;99.90;;;;;;5117057;28;20143;-81
2022/01/24 03:06:45;;;;;;;7.35;4.25;;;-0.40;99.90;;;;;;5117402;28;20600;-81
2022/01/24 03:09:12;;;;;;;10.45;4.53;;;-0.40;99.90;;;;;;5116253;28;20376;-81
2022/01/24 03:12:39;;;;;;;11.23;5.47;;;-0.40;99.90;;;;;;5117188;28;20028;-81
2022/01/24 03:14:27;;;;;;;12.05;5.68;;;-0.30;99.90;;;;;;5102271;28;20147;-81
2022/01/24 03:16:54;;;;;;;11.45;5.35;;;-0.30;99.90;;;;;;5116784;28;20063;-81
2022/01/24 03:19:19;;;;;;;10.85;5.40;;;-0.30;99.90;;;;;;5116863;28;20055;-81
2022/01/24 03:21:45;;;;;;;10.75;5.70;;;-0.30;99.90;;;;;;5116751;28;20032;-81
2022/01/24 03:24:12;;;;;;;12.48;5.78;;;-0.30;99.90;;;;;;5098795;28;20059;-81
2022/01/24 03:26:38;;;;;;;11.27;5.40;;;-0.30;99.90;;;;;;5116875;28;20024;-81
2022/01/24 03:29:04;;;;;;;12.65;6.68;;;-0.30;99.90;;;;;;5117102;28;20020;-82
2022/01/24 03:31:30;;;;;;;13.50;7.25;;;-0.30;99.90;;;;;;5116451;28;20031;-81
2022/01/24 03:33:56;;;;;;;14.20;7.15;;;-0.30;99.90;;;;;;5097854;28;20038;-81
2022/01/24 03:36:22;;;;;;;12.43;6.10;;;-0.30;99.90;;;;;;5116682;28;20395;-81
2022/01/24 03:38:48;;;;;;;13.02;5.70;;;-0.40;99.90;;;;;;5116787;28;20035;-81
2022/01/24 03:41:14;;;;;;;12.63;5.55;;;-0.40;99.90;;;;;;5116736;28;20077;-81
2022/01/24 03:43:40;;;;;;;10.13;5.18;;;-0.50;99.90;;;;;;5116530;28;20062;-81
2022/01/24 03:48:51;;;;;;;10.30;4.97;;;-0.60;99.90;;;;;;5116814;28;20028;-81
2022/01/24 03:51:19;;;;;;;10.82;5.30;;;-0.60;99.90;;;;;;5098120;28;20078;-81
2022/01/24 03:53:45;;;;;;;8.18;4.30;;;-0.70;99.90;;;;;;5116476;28;20032;-81
2022/01/24 03:56:11;;;;;;;9.50;4.28;;;-0.80;99.90;;;;;;5117075;28;20054;-81
2022/01/24 03:58:38;;;;;;;7.43;4.40;;;-0.80;99.90;;;;;;5098269;28;20497;-81
2022/01/24 04:01:06;;;;;;;9.70;4.57;;;-0.90;99.90;;;;;;5116915;28;20061;-81
2022/01/24 04:03:32;;;;;;;9.25;4.40;;;-0.90;99.90;;;;;;5116696;28;20125;-81
2022/01/24 04:05:58;;;;;;;9.60;5.00;;;-0.90;99.90;;;;;;5116761;28;20383;-81
2022/01/24 04:08:24;;;;;;;14.05;6.20;;;-0.90;99.90;;;;;;5117273;28;20019;-81
2022/01/24 04:10:53;;;;;;;15.25;6.90;;;-1.00;99.90;;;;;;5116715;28;20035;-81
2022/01/24 04:21:26;;;;;;;14.60;6.15;;;-1.20;99.90;;;;;;5116896;28;20046;-81
2022/01/24 04:24:10;;;;;;;13.80;7.18;;;-1.30;99.90;;;;;;5119990;28;20027;-82
2022/01/24 04:26:38;;;;;;;16.08;7.32;;;-1.50;99.90;;;;;;5121072;28;20106;-81
2022/01/24 04:29:06;;;;;;;16.33;6.78;;;-1.60;99.90;;;;;;5121994;28;20032;-82
2022/01/24 04:31:31;;;;;;;18.90;7.63;;;-1.60;99.90;;;;;;5122139;28;20039;-81
2022/01/24 04:33:57;;;;;;;26.38;9.85;;;-1.60;99.90;;;;;;5121076;28;20396;-81
2022/01/24 04:36:24;;;;;;;26.17;9.18;;;-1.60;99.90;;;;;;5121453;28;20073;-81
2022/01/24 04:38:51;;;;;;;21.70;8.98;;;-1.50;99.90;;;;;;5102788;28;20445;-81
2022/01/24 04:41:22;;;;;;;20.75;9.02;;;-1.50;99.90;;;;;;5102406;28;20036;-81
2022/01/24 04:56:38;;;;;;;12.57;5.65;;;-1.50;99.90;;;;;;5120761;28;20035;-81
2022/01/24 04:59:05;;;;;;;12.88;5.32;;;-1.50;99.90;;;;;;5121028;28;20031;-81
2022/01/24 05:01:31;;;;;;;13.07;5.53;;;-1.60;99.90;;;;;;5119787;28;20542;-81
2022/01/24 05:03:57;;;;;;;12.02;5.75;;;-1.60;99.90;;;;;;5101623;28;20035;-81
2022/01/24 05:06:23;;;;;;;11.50;5.43;;;-1.60;99.90;;;;;;5120355;28;20023;-80
2022/01/24 05:08:48;;;;;;;14.15;5.53;;;-1.60;99.90;;;;;;5101808;28;20084;-80
2022/01/24 05:11:19;;;;;;;14.23;6.10;;;-1.60;99.90;;;;;;5119966;28;20028;-79
2022/01/24 05:24:23;;;;;;;13.43;5.47;;;-1.70;99.90;;;;;;5118669;28;20027;-79
2022/01/24 05:26:49;;;;;;;12.13;5.72;;;-1.60;99.90;;;;;;5117697;28;20089;-79
2022/01/24 05:29:15;;;;;;;11.10;5.07;;;-1.60;99.90;;;;;;5119020;28;20490;-79
2022/01/24 05:31:41;;;;;;;11.15;5.38;;;-1.70;99.90;;;;;;5118677;28;20031;-78
2022/01/24 05:34:06;;;;;;;11.43;5.25;;;-1.70;99.90;;;;;;5118215;28;20019;-79
2022/01/24 05:36:32;;;;;;;9.68;4.28;;;-1.70;99.90;;;;;;5118335;28;20031;-79
2022/01/24 05:39:00;;;;;;;8.52;3.97;;;-1.80;99.90;;;;;;5118695;28;20038;-79
2022/01/24 05:41:26;;;;;;;9.02;4.50;;;-1.90;99.90;;;;;;5118753;28;20031;-79
2022/01/24 05:43:52;;;;;;;10.02;4.53;;;-1.90;99.90;;;;;;5099533;28;20101;-79
2022/01/24 05:46:18;;;;;;;9.35;5.15;;;-1.90;99.90;;;;;;5118119;28;20111;-79
2022/01/24 05:48:44;;;;;;;10.23;4.43;;;-1.90;99.90;;;;;;5117992;28;20081;-79
2022/01/24 05:51:09;;;;;;;10.20;4.82;;;-1.90;99.90;;;;;;5118432;28;20033;-79
2022/01/24 05:53:35;;;;;;;9.07;4.85;;;-1.90;99.90;;;;;;5118654;28;20059;-80
2022/01/24 05:56:01;;;;;;;7.97;4.32;;;-1.80;99.90;;;;;;5119391;28;20113;-80
2022/01/24 05:58:26;;;;;;;11.88;4.80;;;-1.90;99.90;;;;;;5119255;28;20032;-79
2022/01/24 06:00:52;;;;;;;11.95;5.63;;;-1.90;99.90;;;;;;5119194;28;20039;-80
2022/01/24 06:03:19;;;;;;;17.23;6.45;;;-1.80;99.90;;;;;;5100788;28;20032;-79
2022/01/24 06:05:44;;;;;;;14.88;7.03;;;-1.80;99.90;;;;;;5119091;28;20051;-79
2022/01/24 06:08:10;;;;;;;15.80;7.25;;;-1.80;99.90;;;;;;5119746;28;20356;-80
2022/01/24 06:10:37;;;;;;;34.75;13.07;;;-1.80;99.90;;;;;;5119162;28;20028;-79
2022/01/24 06:13:05;;;;;;;20.73;8.40;;;-1.80;99.90;;;;;;5118708;28;20085;-80
2022/01/24 06:15:31;;;;;;;14.43;6.80;;;-1.80;99.90;;;;;;5118822;28;20414;-80
2022/01/24 06:17:57;;;;;;;13.57;6.10;;;-1.80;99.90;;;;;;5118725;28;20027;-79
2022/01/24 06:20:24;;;;;;;10.90;5.65;;;-1.90;99.90;;;;;;5118521;28;20054;-79
2022/01/24 06:22:50;;;;;;;11.90;5.50;;;-1.90;99.90;;;;;;5100738;28;20411;-79
2022/01/24 06:25:21;;;;;;;12.27;5.75;;;-1.90;99.90;;;;;;5118757;28;20038;-80
2022/01/24 06:27:46;;;;;;;;;;;-1.90;99.90;;;;;;5100440;28;20531;-80
2022/01/24 06:30:12;;;;;;;9.18;4.50;;;-1.90;99.90;;;;;;5118572;28;19939;-80
2022/01/24 06:32:39;;;;;;;8.25;4.40;;;-2.00;99.90;;;;;;5099779;28;20036;-79
2022/01/24 06:35:05;;;;;;;10.18;4.68;;;-2.00;99.90;;;;;;5100324;28;20028;-79
2022/01/24 06:37:31;;;;;;;8.02;4.07;;;-2.00;99.90;;;;;;5099893;28;20043;-80
2022/01/24 06:39:57;;;;;;;12.73;4.53;;;-2.00;99.90;;;;;;5118479;28;20398;-79
2022/01/24 06:42:23;;;;;;;8.43;4.72;;;-2.00;99.90;;;;;;5118399;28;20057;-79
2022/01/24 06:44:50;;;;;;;8.65;4.68;;;-2.00;99.90;;;;;;5117175;28;20066;-79
2022/01/24 06:47:16;;;;;;;8.32;4.13;;;-2.00;99.90;;;;;;5118259;28;20031;-79
2022/01/24 06:49:42;;;;;;;8.98;4.68;;;-2.10;99.90;;;;;;5118269;28;20074;-79
2022/01/24 06:52:08;;;;;;;7.53;4.05;;;-2.10;99.90;;;;;;5118437;28;20024;-79
2022/01/24 06:54:36;;;;;;;7.75;3.90;;;-2.10;99.90;;;;;;5118535;28;20539;-80
2022/01/24 06:57:02;;;;;;;9.10;4.00;;;-2.00;99.90;;;;;;5118319;28;20107;-80
2022/01/24 06:59:28;;;;;;;9.73;4.05;;;-2.00;99.90;;;;;;5117759;28;20034;-79
2022/01/24 07:01:54;;;;;;;11.23;4.63;;;-2.00;99.90;;;;;;5117776;28;20576;-79
2022/01/24 07:04:20;;;;;;;7.80;4.18;;;-2.00;99.90;;;;;;5117725;28;20040;-80
2022/01/24 07:06:46;;;;;;;9.57;4.10;;;-2.00;99.90;;;;;;5118070;28;20023;-80
2022/01/24 07:09:13;;;;;;;11.50;4.60;;;-2.00;99.90;;;;;;5117778;28;20479;-80
2022/01/24 07:11:39;;;;;;;10.80;4.75;;;-1.90;99.90;;;;;;5118271;28;20491;-79
2022/01/24 07:14:11;;;;;;;9.98;5.07;;;-1.90;99.90;;;;;;5117812;28;20448;-79
2022/01/24 07:17:04;;;;;;;;;;;-1.80;99.90;;;;;;5118355;28;20039;-79
2022/01/24 07:19:27;;;;;;;11.40;4.47;;;-1.80;99.90;;;;;;5116597;28;19954;-79
2022/01/24 07:21:54;;;;;;;13.35;5.13;;;-1.70;99.90;;;;;;5117833;28;20115;-79
2022/01/24 07:24:20;;;;;;;9.10;4.25;;;-1.70;99.90;;;;;;5117683;28;20097;-79
2022/01/24 07:26:45;;;;;;;10.82;5.28;;;-1.70;99.90;;;;;;5118033;28;20468;-79
2022/01/24 07:29:11;;;;;;;9.32;5.55;;;-1.70;99.90;;;;;;5118154;28;20031;-79
2022/01/24 07:31:37;;;;;;;12.15;6.57;;;-1.70;99.90;;;;;;5117457;28;20091;-80
2022/01/24 07:34:03;;;;;;;11.75;6.28;;;-1.60;99.90;;;;;;5098957;28;20506;-79
2022/01/24 07:36:29;;;;;;;13.52;7.75;;;-1.60;99.90;;;;;;5117294;28;20039;-79
2022/01/24 07:38:55;;;;;;;16.88;8.40;;;-1.60;99.90;;;;;;5116999;28;20036;-79
2022/01/24 07:41:27;;;;;;;16.88;8.57;;;-1.60;99.90;;;;;;5117351;28;20115;-80
2022/01/24 07:43:53;;;;;;;25.52;11.13;;;-1.60;99.90;;;;;;5117010;28;20031;-79
2022/01/24 07:46:19;;;;;;;23.10;10.07;;;-1.50;99.90;;;;;;5116984;28;20055;-79
2022/01/24 07:48:44;;;;;;;13.15;6.88;;;-1.40;99.90;;;;;;5117506;28;20039;-80
2022/01/24 07:51:11;;;;;;;12.00;5.72;;;-1.40;99.90;;;;;;5117545;28;20036;-80
2022/01/24 07:53:36;;;;;;;11.10;5.03;;;-1.40;99.90;;;;;;5099157;28;20036;-80
2022/01/24 07:56:04;;;;;;;12.02;5.22;;;-1.30;99.90;;;;;;5119296;28;20047;-80
2022/01/24 07:58:29;;;;;;;9.23;4.88;;;-1.30;99.90;;;;;;5121446;28;20034;-80
2022/01/24 08:00:55;;;;;;;11.65;6.80;;;-1.20;99.90;;;;;;5102663;28;20031;-80
2022/01/24 08:03:21;;;;;;;19.58;12.15;;;-1.20;99.90;;;;;;5121186;28;20078;-79
2022/01/24 08:05:47;;;;;;;40.88;24.65;;;-1.10;99.90;;;;;;5121316;28;20442;-79
2022/01/24 08:08:13;;;;;;;38.75;23.15;;;-1.10;99.90;;;;;;5121611;28;20034;-79
2022/01/24 08:10:38;;;;;;;36.45;21.08;;;-1.00;99.90;;;;;;5120928;28;20028;-79
2022/01/24 08:13:04;;;;;;;31.95;19.30;;;-1.00;99.90;;;;;;5102494;28;20062;-79
2022/01/24 08:15:30;;;;;;;28.58;16.42;;;-1.00;99.90;;;;;;5120781;28;20058;-79
2022/01/24 08:17:56;;;;;;;19.65;10.73;;;-0.90;99.90;;;;;;5121140;28;20036;-80
2022/01/24 08:20:22;;;;;;;18.30;9.48;;;-0.90;99.90;;;;;;5120638;28;20038;-80
2022/01/24 08:22:49;;;;;;;15.75;7.53;;;-0.80;99.90;;;;;;5120805;28;20028;-80
2022/01/24 08:25:15;;;;;;;12.65;5.80;;;-0.70;99.90;;;;;;5120563;28;20381;-79
2022/01/24 08:27:41;;;;;;;14.38;6.93;;;-0.70;99.90;;;;;;5120304;28;20037;-80
2022/01/24 08:30:12;;;;;;;17.15;7.72;;;-0.70;99.90;;;;;;5101991;28;20438;-80
2022/01/24 08:32:38;;;;;;;17.02;7.28;;;-0.70;99.90;;;;;;5120797;28;20107;-80
2022/01/24 08:35:05;;;;;;;17.25;8.05;;;-0.70;99.90;;;;;;5120881;28;20055;-79
2022/01/24 08:37:31;;;;;;;15.90;7.85;;;-0.60;99.90;;;;;;5120555;28;20467;-79
2022/01/24 08:39:58;;;;;;;18.02;7.95;;;-0.60;99.90;;;;;;5120439;28;20427;-79
2022/01/24 08:42:53;;;;;;;19.00;8.20;;;-0.60;99.90;;;;;;5120978;28;20028;-79
2022/01/24 08:47:57;;;;;;;19.42;10.75;;;-0.40;99.90;;;;;;5120280;28;20062;-80
2022/01/24 08:50:26;;;;;;;28.08;15.07;;;-0.30;99.90;;;;;;5120063;28;20027;-79
2022/01/24 08:52:59;;;;;;;34.58;21.20;;;-0.20;99.90;;;;;;5101467;28;20411;-80
2022/01/24 08:55:32;;;;;;;24.80;14.57;;;-0.20;99.90;;;;;;5120121;28;20062;-80
2022/01/24 08:57:59;;;;;;;21.52;10.85;;;-0.10;99.90;;;;;;5119906;28;20038;-80
2022/01/24 09:00:25;;;;;;;17.55;8.88;;;-0.10;99.90;;;;;;5119781;28;20126;-80
2022/01/24 09:02:51;;;;;;;19.02;8.95;;;0.00;99.90;;;;;;5101129;28;20212;-79
2022/01/24 09:05:18;;;;;;;20.52;8.57;;;0.00;99.90;;;;;;5119773;28;20024;-79
2022/01/24 09:07:44;;;;;;;17.05;7.97;;;0.10;99.90;;;;;;5100604;28;20090;-80
2022/01/24 09:10:11;;;;;;;17.77;8.10;;;0.10;99.90;;;;;;5119669;28;20024;-79
2022/01/24 09:12:37;;;;;;;16.23;8.07;;;0.10;99.90;;;;;;5120265;28;20426;-79
2022/01/24 09:15:04;;;;;;;15.32;7.18;;;0.10;99.90;;;;;;5119781;28;20061;-79
2022/01/24 09:17:30;;;;;;;17.05;7.90;;;0.20;99.90;;;;;;5119402;28;20082;-80
2022/01/24 09:19:56;;;;;;;19.98;9.88;;;0.20;99.90;;;;;;5119326;28;20118;-80
2022/01/24 09:22:22;;;;;;;17.70;8.68;;;0.20;99.90;;;;;;5119356;28;20078;-80
2022/01/24 09:24:48;;;;;;;22.10;9.00;;;0.20;99.90;;;;;;5119612;28;20020;-80
2022/01/24 09:27:15;;;;;;;17.13;8.05;;;0.20;99.90;;;;;;5119190;28;20491;-80
2022/01/24 09:29:40;;;;;;;17.98;8.52;;;0.30;99.90;;;;;;5119630;28;20027;-79
2022/01/24 09:32:06;;;;;;;18.58;7.50;;;0.30;99.90;;;;;;5118788;28;20050;-80
2022/01/24 09:34:32;;;;;;;18.00;8.85;;;0.40;99.90;;;;;;5119318;28;20036;-80
2022/01/24 09:36:58;;;;;;;16.75;7.90;;;0.40;99.90;;;;;;5101009;28;20040;-80
2022/01/24 09:39:24;;;;;;;13.77;7.13;;;0.50;99.90;;;;;;5100846;28;20035;-80
2022/01/24 09:41:51;;;;;;;14.85;7.60;;;0.60;99.90;;;;;;5100658;28;20031;-80
2022/01/24 09:44:17;;;;;;;13.70;7.15;;;0.70;99.90;;;;;;5118677;28;20036;-80
2022/01/24 09:46:44;;;;;;;14.38;7.40;;;0.80;99.90;;;;;;5118906;28;20020;-80
2022/01/24 09:49:10;;;;;;;12.57;6.72;;;0.80;99.90;;;;;;5101515;28;20032;-80
2022/01/24 09:51:37;;;;;;;14.25;7.13;;;0.90;99.90;;;;;;5118972;28;20387;-80
2022/01/24 09:54:04;;;;;;;16.75;7.65;;;1.00;99.90;;;;;;5099745;28;20032;-80
2022/01/24 09:56:31;;;;;;;14.95;7.53;;;1.00;99.90;;;;;;5099371;28;20035;-80
2022/01/24 09:58:56;;;;;;;16.30;7.85;;;1.00;99.90;;;;;;5118082;28;20040;-80
2022/01/24 10:01:23;;;;;;;16.00;8.43;;;0.80;99.90;;;;;;5117550;28;20035;-80
2022/01/24 10:04:15;;;;;;;21.45;10.30;;;0.80;99.90;;;;;;5117243;28;20028;-80
2022/01/24 10:06:59;;;;;;;19.83;9.77;;;0.70;99.90;;;;;;5117604;28;20032;-80
2022/01/24 10:09:37;;;;;;;18.45;9.32;;;0.60;99.90;;;;;;5117128;28;20031;-80
2022/01/24 10:12:08;;;;;;;24.35;10.50;;;0.60;99.90;;;;;;5117858;28;20388;-79
2022/01/24 10:17:26;;;;;;;21.70;8.65;;;0.50;99.90;;;;;;5117697;28;20062;-80
2022/01/24 10:19:52;;;;;;;18.88;8.52;;;0.40;99.90;;;;;;5098008;28;20031;-80
2022/01/24 10:22:25;;;;;;;19.83;9.23;;;0.40;99.90;;;;;;5117580;28;20034;-80
2022/01/24 10:24:54;;;;;;;20.30;9.88;;;0.30;99.90;;;;;;5117238;28;20161;-79
2022/01/24 10:27:28;;;;;;;25.17;9.32;;;0.30;99.90;;;;;;5117123;28;20024;-80
2022/01/24 10:30:10;;;;;;;19.92;8.85;;;0.30;99.90;;;;;;5117371;28;20039;-79
2022/01/24 10:32:46;;;;;;;21.55;9.80;;;0.30;99.90;;;;;;5117103;28;20414;-80
2022/01/24 10:35:46;;;;;;;21.38;9.02;;;0.30;99.90;;;;;;5117156;28;20023;-80
2022/01/24 10:39:05;;;;;;;20.10;8.63;;;0.30;99.90;;;;;;5081820;28;20476;-81
2022/01/24 10:41:23;;;;;;;21.55;9.85;;;0.30;99.90;;;;;;5105727;28;20038;-80
2022/01/24 10:43:52;;;;;;;21.88;9.48;;;0.40;99.90;;;;;;5116684;28;20033;-80
2022/01/24 10:46:26;;;;;;;20.90;9.88;;;0.40;99.90;;;;;;5116365;28;20195;-80
2022/01/24 10:49:04;;;;;;;21.45;10.05;;;0.40;99.90;;;;;;5116982;28;20169;-80
2022/01/24 10:51:38;;;;;;;20.85;9.57;;;0.40;99.90;;;;;;5116802;28;20399;-80
2022/01/24 10:54:04;;;;;;;24.23;9.80;;;0.40;99.90;;;;;;5116705;28;20042;-79
2022/01/24 10:56:34;;;;;;;19.92;9.70;;;0.50;99.90;;;;;;5098192;28;20511;-79
2022/01/24 10:59:11;;;;;;;19.20;8.98;;;0.50;99.90;;;;;;5117500;28;20364;-79
2022/01/24 11:01:39;;;;;;;16.85;8.45;;;0.50;99.90;;;;;;5116714;28;20391;-79
2022/01/24 11:04:09;;;;;;;20.17;9.10;;;0.60;99.90;;;;;;5116204;28;20063;-79
2022/01/24 11:06:38;;;;;;;19.55;9.55;;;0.60;99.90;;;;;;5116893;28;20043;-79
2022/01/24 11:09:22;;;;;;;17.80;9.10;;;0.60;99.90;;;;;;5115887;28;20073;-79
2022/01/24 11:11:58;;;;;;;19.85;9.20;;;0.60;99.90;;;;;;5097959;28;20057;-79
2022/01/24 11:14:26;;;;;;;19.05;8.40;;;0.70;99.90;;;;;;5097458;28;20037;-79
2022/01/24 11:16:53;;;;;;;21.33;8.98;;;0.70;99.90;;;;;;5116133;28;20037;-79
2022/01/24 11:19:47;;;;;;;21.88;9.52;;;0.70;99.90;;;;;;5116083;28;20020;-79
2022/01/24 11:22:25;;;;;;;18.58;9.30;;;0.80;99.90;;;;;;5114748;28;20450;-79
2022/01/24 11:24:59;;;;;;;18.13;8.65;;;0.80;99.90;;;;;;5115956;28;20028;-79
2022/01/24 11:27:26;;;;;;;21.33;10.02;;;0.80;99.90;;;;;;5115960;28;20042;-79
2022/01/24 11:29:55;;;;;;;19.08;9.27;;;0.90;99.90;;;;;;5116369;28;20352;-79
2022/01/24 11:32:38;;;;;;;20.02;8.23;;;0.90;99.90;;;;;;5115575;28;20047;-79
2022/01/24 11:35:05;;;;;;;18.13;8.82;;;0.90;99.90;;;;;;5115775;28;20034;-79
2022/01/24 11:37:34;;;;;;;19.27;8.80;;;0.90;99.90;;;;;;5097280;28;20042;-79
2022/01/24 11:40:01;;;;;;;21.65;9.93;;;0.90;99.90;;;;;;5115618;28;20027;-79
2022/01/24 11:42:33;;;;;;;24.23;11.77;;;1.00;99.90;;;;;;5115854;28;20410;-79
2022/01/24 11:45:04;;;;;;;23.95;11.18;;;1.00;99.90;;;;;;5116117;28;20031;-79
2022/01/24 11:47:34;;;;;;;28.55;13.93;;;1.00;99.90;;;;;;5115828;28;20031;-79
2022/01/24 11:50:27;;;;;;;25.73;12.07;;;1.10;99.90;;;;;;5116139;28;20032;-79
2022/01/24 11:52:56;;;;;;;23.52;12.48;;;1.10;99.90;;;;;;5115735;28;20039;-79
2022/01/24 11:55:35;;;;;;;24.23;12.02;;;1.20;99.90;;;;;;5116058;28;20375;-79
2022/01/24 11:58:07;;;;;;;30.45;14.75;;;1.30;99.90;;;;;;5115652;28;20111;-79
2022/01/24 12:00:44;;;;;;;29.00;14.20;;;1.30;99.90;;;;;;5115399;28;20387;-79
2022/01/24 12:03:28;;;;;;;26.40;13.95;;;1.30;99.90;;;;;;5097192;28;20038;-79
2022/01/24 12:05:56;;;;;;;30.10;15.15;;;1.40;99.90;;;;;;5116170;28;20016;-79
2022/01/24 12:08:33;;;;;;;35.53;16.58;;;1.40;99.90;;;;;;5115270;28;20051;-79
2022/01/24 12:11:23;;;;;;;24.42;12.65;;;1.40;99.90;;;;;;5115672;28;20483;-79
2022/01/24 12:13:53;;;;;;;22.17;10.23;;;1.40;99.90;;;;;;5097297;28;20126;-79
2022/01/24 12:16:22;;;;;;;28.90;13.43;;;1.50;99.90;;;;;;5116236;28;20492;-79
2022/01/24 12:18:51;;;;;;;25.77;12.27;;;1.50;99.90;;;;;;5115316;28;20430;-79
2022/01/24 12:21:21;;;;;;;20.30;10.27;;;1.50;99.90;;;;;;5115218;28;20032;-79
2022/01/24 12:23:51;;;;;;;22.13;10.77;;;1.60;99.90;;;;;;5115580;28;20073;-79
2022/01/24 12:26:16;;;;;;;18.75;9.38;;;1.70;99.90;;;;;;5115623;28;20506;-79
2022/01/24 12:28:42;;;;;;;20.65;10.43;;;1.80;99.90;;;;;;5115736;28;20106;-79
2022/01/24 12:31:10;;;;;;;15.23;8.43;;;1.90;99.90;;;;;;5115528;28;20032;-79
2022/01/24 12:34:04;;;;;;;14.52;8.10;;;2.00;99.90;;;;;;5115675;28;20483;-79
2022/01/24 12:36:46;;;;;;;14.75;7.38;;;2.10;99.90;;;;;;5114739;28;20036;-79
2022/01/24 12:39:26;;;;;;;15.27;7.95;;;2.30;99.90;;;;;;5114889;28;20067;-80
2022/01/24 12:41:59;;;;;;;17.98;8.25;;;2.30;99.90;;;;;;5115008;28;20039;-80
2022/01/24 12:47:12;;;;;;;16.25;8.30;;;2.50;99.90;;;;;;5118665;28;20395;-80
2022/01/24 12:49:39;;;;;;;17.67;8.43;;;2.60;99.90;;;;;;5118781;28;20059;-80
2022/01/24 12:52:08;;;;;;;14.82;8.15;;;2.70;99.90;;;;;;5118304;28;20492;-80
2022/01/24 12:54:39;;;;;;;14.95;8.55;;;2.70;99.90;;;;;;5119118;28;20031;-80
2022/01/24 12:57:07;;;;;;;17.10;8.80;;;2.70;99.90;;;;;;5119510;28;20024;-80
2022/01/24 12:59:34;;;;;;;16.50;8.93;;;2.70;99.90;;;;;;5119356;28;20049;-80
2022/01/24 13:02:02;;;;;;;17.90;9.27;;;2.80;99.90;;;;;;5118352;28;20530;-80
2022/01/24 13:04:39;;;;;;;19.33;8.95;;;2.80;99.90;;;;;;5099331;28;20506;-80
2022/01/24 13:07:07;;;;;;;17.40;9.80;;;2.90;99.90;;;;;;5117005;28;20028;-80
2022/01/24 13:09:35;;;;;;;21.30;11.30;;;3.00;99.90;;;;;;5099006;28;20039;-80
2022/01/24 13:12:04;;;;;;;20.38;11.05;;;3.00;99.90;;;;;;5118076;28;20032;-80
2022/01/24 13:22:51;;;;;;;31.52;17.10;;;3.40;99.90;;;;;;5117200;28;20039;-80
2022/01/24 13:25:23;;;;;;;30.70;15.60;;;3.50;99.90;;;;;;5116871;28;20073;-80
2022/01/24 13:28:01;;;;;;;24.90;13.63;;;3.50;99.90;;;;;;5117286;28;20103;-80
2022/01/24 13:30:34;;;;;;;24.88;13.55;;;3.60;99.90;;;;;;5116891;28;20101;-80
2022/01/24 13:33:05;;;;;;;27.65;14.73;;;3.70;99.90;;;;;;5116759;28;20039;-80
2022/01/24 13:35:38;;;;;;;95.22;41.50;;;3.70;99.90;;;;;;5117215;28;20050;-80
2022/01/24 13:38:08;;;;;;;106.03;49.35;;;3.80;99.90;;;;;;5117351;28;20059;-80
2022/01/24 13:40:37;;;;;;;90.95;41.30;;;3.80;99.90;;;;;;5116590;28;20027;-80
2022/01/24 13:43:04;;;;;;;48.33;24.75;;;3.80;99.90;;;;;;5098205;28;20035;-80
2022/01/24 13:45:39;;;;;;;34.95;19.23;;;3.80;99.90;;;;;;5098350;28;20038;-80
2022/01/24 13:48:06;;;;;;;24.70;12.30;;;3.80;99.90;;;;;;5116756;28;20420;-80
2022/01/24 13:50:33;;;;;;;18.48;10.95;;;3.80;99.90;;;;;;5116423;28;20074;-80
2022/01/24 13:52:59;;;;;;;16.67;10.07;;;3.80;99.90;;;;;;5116328;28;20031;-80
2022/01/24 13:55:25;;;;;;;19.13;10.63;;;3.80;99.90;;;;;;5117491;28;20028;-80
2022/01/24 13:57:53;;;;;;;21.88;11.10;;;3.70;99.90;;;;;;5116612;28;20153;-80
2022/01/24 14:00:28;;;;;;;18.73;10.02;;;3.60;99.90;;;;;;5117081;28;20028;-80
2022/01/24 14:03:08;;;;;;;22.40;12.23;;;3.60;99.90;;;;;;5119526;28;20034;-80
2022/01/24 14:05:33;;;;;;;19.60;10.82;;;3.50;99.90;;;;;;5116481;28;20028;-80
2022/01/24 14:08:15;;;;;;;20.58;12.18;;;3.40;99.90;;;;;;5116403;28;20023;-80
2022/01/24 14:10:42;;;;;;;21.20;11.65;;;3.40;99.90;;;;;;5117259;28;20032;-80
2022/01/24 14:13:09;;;;;;;24.23;12.07;;;3.30;99.90;;;;;;5116477;28;20487;-80
2022/01/24 14:15:49;;;;;;;20.92;12.70;;;3.20;99.90;;;;;;5116583;28;20032;-80
2022/01/24 14:20:50;;;;;;;26.08;14.18;;;3.00;99.90;;;;;;5116697;28;20059;-80
2022/01/24 14:23:34;;;;;;;23.67;13.18;;;3.00;99.90;;;;;;5097887;28;20028;-80
2022/01/24 14:26:15;;;;;;;22.17;12.93;;;2.90;99.90;;;;;;5116116;28;20027;-80
2022/01/24 14:28:41;;;;;;;25.13;13.82;;;2.90;99.90;;;;;;5116675;28;20023;-80
2022/01/24 14:31:12;;;;;;;20.73;13.07;;;2.80;99.90;;;;;;5097957;28;20031;-80
2022/01/24 14:33:39;;;;;;;25.63;13.38;;;2.80;99.90;;;;;;5116314;28;20024;-80
2022/01/24 14:36:15;;;;;;;27.40;13.48;;;2.80;99.90;;;;;;5097614;28;20575;-80
2022/01/24 14:38:55;;;;;;;29.48;14.68;;;2.80;99.90;;;;;;5116237;28;20108;-80
2022/01/24 14:41:26;;;;;;;23.55;14.07;;;2.70;99.90;;;;;;5115913;28;20055;-80
2022/01/24 14:46:38;;;;;;;25.15;13.55;;;2.60;99.90;;;;;;5115966;28;20006;-80
2022/01/24 14:49:08;;;;;;;25.08;13.90;;;2.50;99.90;;;;;;5115672;28;20027;-80
2022/01/24 14:51:42;;;;;;;25.80;13.50;;;2.50;99.90;;;;;;5115893;28;20028;-80
2022/01/24 14:54:10;;;;;;;25.33;13.10;;;2.40;99.90;;;;;;5097794;28;20493;-80
2022/01/24 14:56:38;;;;;;;24.85;14.57;;;2.40;99.90;;;;;;5115867;28;20059;-80
2022/01/24 14:59:05;;;;;;;22.15;13.63;;;2.40;99.90;;;;;;5097502;28;20028;-80